sensor_id;sensor_type;location;lat;lon;timestamp;P1;durP1;ratioP1;P2;durP2;ratioP2
60472;SDS011;46318;52.716;6.444;2023-11-21T00:01:07;62.92;;;28.95;;
60472;SDS011;46318;52.716;6.444;2023-11-21T00:03:34;62.15;;;28.77;;
60472;SDS011;46318;52.716;6.444;2023-11-21T00:06:00;63.25;;;33.92;;
60472;SDS011;46318;52.716;6.444;2023-11-21T00:08:27;56.30;;;28.02;;
60472;SDS011;46318;52.716;6.444;2023-11-21T00:10:54;57.42;;;26.75;;
60472;SDS011;46318;52.716;6.444;2023-11-21T00:13:21;55.63;;;27.80;;
60472;SDS011;46318;52.716;6.444;2023-11-21T00:15:47;61.83;;;30.13;;
60472;SDS011;46318;52.716;6.444;2023-11-21T00:18:14;51.35;;;26.15;;
60472;SDS011;46318;52.716;6.444;2023-11-21T00:20:41;62.17;;;32.08;;
60472;SDS011;46318;52.716;6.444;2023-11-21T00:23:08;52.17;;;25.73;;
60472;SDS011;46318;52.716;6.444;2023-11-21T00:25:34;58.75;;;28.10;;
60472;SDS011;46318;52.716;6.444;2023-11-21T00:28:00;49.10;;;26.00;;
60472;SDS011;46318;52.716;6.444;2023-11-21T00:30:28;59.90;;;27.00;;
60472;SDS011;46318;52.716;6.444;2023-11-21T00:32:56;57.30;;;27.77;;
60472;SDS011;46318;52.716;6.444;2023-11-21T00:35:22;56.78;;;31.50;;
60472;SDS011;46318;52.716;6.444;2023-11-21T00:37:48;55.38;;;27.95;;
60472;SDS011;46318;52.716;6.444;2023-11-21T00:40:15;55.08;;;27.40;;
60472;SDS011;46318;52.716;6.444;2023-11-21T00:42:46;58.72;;;27.15;;
60472;SDS011;46318;52.716;6.444;2023-11-21T00:45:12;55.47;;;26.67;;
60472;SDS011;46318;52.716;6.444;2023-11-21T00:47:41;52.83;;;26.17;;
60472;SDS011;46318;52.716;6.444;2023-11-21T00:50:08;59.35;;;31.98;;
60472;SDS011;46318;52.716;6.444;2023-11-21T00:52:35;54.88;;;25.35;;
60472;SDS011;46318;52.716;6.444;2023-11-21T00:55:01;60.13;;;26.27;;
60472;SDS011;46318;52.716;6.444;2023-11-21T00:57:28;58.22;;;27.50;;
60472;SDS011;46318;52.716;6.444;2023-11-21T00:59:55;60.30;;;27.50;;
60472;SDS011;46318;52.716;6.444;2023-11-21T01:02:23;61.55;;;28.88;;
60472;SDS011;46318;52.716;6.444;2023-11-21T01:04:50;62.75;;;28.13;;
60472;SDS011;46318;52.716;6.444;2023-11-21T01:07:17;57.33;;;30.75;;
60472;SDS011;46318;52.716;6.444;2023-11-21T01:09:45;60.70;;;26.67;;
60472;SDS011;46318;52.716;6.444;2023-11-21T01:12:12;54.78;;;26.60;;
60472;SDS011;46318;52.716;6.444;2023-11-21T01:14:38;67.78;;;29.05;;
60472;SDS011;46318;52.716;6.444;2023-11-21T01:17:04;64.00;;;28.65;;
60472;SDS011;46318;52.716;6.444;2023-11-21T01:19:33;61.47;;;28.70;;
60472;SDS011;46318;52.716;6.444;2023-11-21T01:22:00;62.13;;;30.98;;
60472;SDS011;46318;52.716;6.444;2023-11-21T01:24:29;58.42;;;26.20;;
60472;SDS011;46318;52.716;6.444;2023-11-21T01:26:55;56.70;;;26.58;;
60472;SDS011;46318;52.716;6.444;2023-11-21T01:29:21;62.45;;;28.83;;
60472;SDS011;46318;52.716;6.444;2023-11-21T01:31:47;64.88;;;31.63;;
60472;SDS011;46318;52.716;6.444;2023-11-21T01:34:14;61.92;;;26.88;;
60472;SDS011;46318;52.716;6.444;2023-11-21T01:36:40;62.50;;;27.90;;
60472;SDS011;46318;52.716;6.444;2023-11-21T01:39:06;61.50;;;32.13;;
60472;SDS011;46318;52.716;6.444;2023-11-21T01:41:34;55.65;;;26.15;;
60472;SDS011;46318;52.716;6.444;2023-11-21T01:44:00;61.78;;;26.88;;
60472;SDS011;46318;52.716;6.444;2023-11-21T01:46:27;59.08;;;28.65;;
60472;SDS011;46318;52.716;6.444;2023-11-21T01:48:54;60.78;;;29.63;;
60472;SDS011;46318;52.716;6.444;2023-11-21T01:51:20;59.53;;;32.10;;
60472;SDS011;46318;52.716;6.444;2023-11-21T01:53:46;56.47;;;26.90;;
60472;SDS011;46318;52.716;6.444;2023-11-21T01:56:13;55.75;;;27.42;;
60472;SDS011;46318;52.716;6.444;2023-11-21T01:58:40;59.08;;;31.92;;
60472;SDS011;46318;52.716;6.444;2023-11-21T02:01:08;46.70;;;25.25;;
60472;SDS011;46318;52.716;6.444;2023-11-21T02:03:40;58.70;;;27.58;;
60472;SDS011;46318;52.716;6.444;2023-11-21T02:06:07;58.80;;;27.80;;
60472;SDS011;46318;52.716;6.444;2023-11-21T02:08:33;58.33;;;31.85;;
60472;SDS011;46318;52.716;6.444;2023-11-21T02:11:02;54.72;;;24.83;;
60472;SDS011;46318;52.716;6.444;2023-11-21T02:13:29;59.65;;;27.88;;
60472;SDS011;46318;52.716;6.444;2023-11-21T02:15:56;56.92;;;26.50;;
60472;SDS011;46318;52.716;6.444;2023-11-21T02:18:23;60.70;;;32.72;;
60472;SDS011;46318;52.716;6.444;2023-11-21T02:20:49;57.00;;;25.17;;
60472;SDS011;46318;52.716;6.444;2023-11-21T02:23:16;60.55;;;27.95;;
60472;SDS011;46318;52.716;6.444;2023-11-21T02:25:43;65.55;;;31.10;;
60472;SDS011;46318;52.716;6.444;2023-11-21T02:28:09;57.78;;;26.75;;
60472;SDS011;46318;52.716;6.444;2023-11-21T02:30:37;63.30;;;32.85;;
60472;SDS011;46318;52.716;6.444;2023-11-21T02:33:04;59.75;;;28.13;;
60472;SDS011;46318;52.716;6.444;2023-11-21T02:35:31;73.10;;;34.85;;
60472;SDS011;46318;52.716;6.444;2023-11-21T02:37:58;62.00;;;27.42;;
60472;SDS011;46318;52.716;6.444;2023-11-21T02:40:25;66.60;;;29.92;;
60472;SDS011;46318;52.716;6.444;2023-11-21T02:42:51;65.25;;;29.95;;
60472;SDS011;46318;52.716;6.444;2023-11-21T02:45:18;59.63;;;29.48;;
60472;SDS011;46318;52.716;6.444;2023-11-21T02:47:46;68.35;;;31.30;;
60472;SDS011;46318;52.716;6.444;2023-11-21T02:50:14;63.10;;;29.08;;
60472;SDS011;46318;52.716;6.444;2023-11-21T02:52:40;69.97;;;30.60;;
60472;SDS011;46318;52.716;6.444;2023-11-21T02:55:06;68.07;;;36.45;;
60472;SDS011;46318;52.716;6.444;2023-11-21T02:57:33;71.45;;;29.10;;
60472;SDS011;46318;52.716;6.444;2023-11-21T02:59:59;74.00;;;37.15;;
60472;SDS011;46318;52.716;6.444;2023-11-21T03:02:25;62.83;;;27.85;;
60472;SDS011;46318;52.716;6.444;2023-11-21T03:04:52;73.85;;;31.73;;
60472;SDS011;46318;52.716;6.444;2023-11-21T03:07:18;68.10;;;35.72;;
60472;SDS011;46318;52.716;6.444;2023-11-21T03:09:45;59.33;;;28.13;;
60472;SDS011;46318;52.716;6.444;2023-11-21T03:12:11;59.42;;;28.40;;
60472;SDS011;46318;52.716;6.444;2023-11-21T03:14:38;70.28;;;30.98;;
60472;SDS011;46318;52.716;6.444;2023-11-21T03:17:05;69.80;;;30.48;;
60472;SDS011;46318;52.716;6.444;2023-11-21T03:19:31;55.72;;;28.50;;
60472;SDS011;46318;52.716;6.444;2023-11-21T03:21:58;65.43;;;34.72;;
60472;SDS011;46318;52.716;6.444;2023-11-21T03:24:24;60.42;;;29.42;;
60472;SDS011;46318;52.716;6.444;2023-11-21T03:26:51;63.55;;;29.73;;
60472;SDS011;46318;52.716;6.444;2023-11-21T03:29:18;63.30;;;34.30;;
60472;SDS011;46318;52.716;6.444;2023-11-21T03:31:44;56.22;;;27.50;;
60472;SDS011;46318;52.716;6.444;2023-11-21T03:34:14;64.45;;;29.73;;
60472;SDS011;46318;52.716;6.444;2023-11-21T03:36:44;66.90;;;35.42;;
60472;SDS011;46318;52.716;6.444;2023-11-21T03:39:12;67.00;;;30.48;;
60472;SDS011;46318;52.716;6.444;2023-11-21T03:41:41;74.22;;;37.70;;
60472;SDS011;46318;52.716;6.444;2023-11-21T03:44:07;72.13;;;30.40;;
60472;SDS011;46318;52.716;6.444;2023-11-21T03:46:34;67.55;;;36.70;;
60472;SDS011;46318;52.716;6.444;2023-11-21T03:49:00;64.65;;;29.75;;
60472;SDS011;46318;52.716;6.444;2023-11-21T03:51:26;55.85;;;29.38;;
60472;SDS011;46318;52.716;6.444;2023-11-21T03:53:53;77.18;;;40.08;;
60472;SDS011;46318;52.716;6.444;2023-11-21T03:56:19;76.10;;;31.85;;
60472;SDS011;46318;52.716;6.444;2023-11-21T03:58:49;63.50;;;31.67;;
60472;SDS011;46318;52.716;6.444;2023-11-21T04:01:19;70.90;;;38.67;;
60472;SDS011;46318;52.716;6.444;2023-11-21T04:06:16;58.70;;;27.42;;
60472;SDS011;46318;52.716;6.444;2023-11-21T04:08:52;65.28;;;30.40;;
60472;SDS011;46318;52.716;6.444;2023-11-21T04:11:18;68.35;;;36.13;;
60472;SDS011;46318;52.716;6.444;2023-11-21T04:13:44;70.13;;;31.23;;
60472;SDS011;46318;52.716;6.444;2023-11-21T04:16:12;62.55;;;30.98;;
60472;SDS011;46318;52.716;6.444;2023-11-21T04:18:38;71.68;;;37.90;;
60472;SDS011;46318;52.716;6.444;2023-11-21T04:21:05;63.95;;;30.60;;
60472;SDS011;46318;52.716;6.444;2023-11-21T04:23:33;63.38;;;32.13;;
60472;SDS011;46318;52.716;6.444;2023-11-21T04:26:00;65.93;;;36.22;;
60472;SDS011;46318;52.716;6.444;2023-11-21T04:28:27;60.22;;;30.67;;
60472;SDS011;46318;52.716;6.444;2023-11-21T04:30:53;55.00;;;32.72;;
60472;SDS011;46318;52.716;6.444;2023-11-21T04:33:20;71.22;;;29.83;;
60472;SDS011;46318;52.716;6.444;2023-11-21T04:35:47;62.75;;;34.50;;
60472;SDS011;46318;52.716;6.444;2023-11-21T04:38:13;59.42;;;29.48;;
60472;SDS011;46318;52.716;6.444;2023-11-21T04:40:40;56.03;;;28.20;;
60472;SDS011;46318;52.716;6.444;2023-11-21T04:43:06;57.05;;;29.45;;
60472;SDS011;46318;52.716;6.444;2023-11-21T04:45:32;62.67;;;30.25;;
60472;SDS011;46318;52.716;6.444;2023-11-21T04:47:59;56.42;;;32.80;;
60472;SDS011;46318;52.716;6.444;2023-11-21T04:50:27;62.67;;;29.73;;
60472;SDS011;46318;52.716;6.444;2023-11-21T04:52:54;64.97;;;34.53;;
60472;SDS011;46318;52.716;6.444;2023-11-21T04:55:20;66.30;;;28.85;;
60472;SDS011;46318;52.716;6.444;2023-11-21T04:57:46;58.20;;;28.17;;
60472;SDS011;46318;52.716;6.444;2023-11-21T05:00:13;60.10;;;34.67;;
60472;SDS011;46318;52.716;6.444;2023-11-21T05:02:41;64.63;;;28.35;;
60472;SDS011;46318;52.716;6.444;2023-11-21T05:05:08;66.68;;;29.33;;
60472;SDS011;46318;52.716;6.444;2023-11-21T05:07:38;65.38;;;35.25;;
60472;SDS011;46318;52.716;6.444;2023-11-21T05:10:08;57.08;;;28.35;;
60472;SDS011;46318;52.716;6.444;2023-11-21T05:12:37;55.13;;;28.40;;
60472;SDS011;46318;52.716;6.444;2023-11-21T05:15:06;67.50;;;30.23;;
60472;SDS011;46318;52.716;6.444;2023-11-21T05:17:37;54.92;;;28.15;;
60472;SDS011;46318;52.716;6.444;2023-11-21T05:20:13;53.67;;;32.03;;
60472;SDS011;46318;52.716;6.444;2023-11-21T05:22:43;44.83;;;24.13;;
60472;SDS011;46318;52.716;6.444;2023-11-21T05:25:09;50.90;;;27.10;;
60472;SDS011;46318;52.716;6.444;2023-11-21T05:27:37;51.30;;;26.73;;
60472;SDS011;46318;52.716;6.444;2023-11-21T05:30:03;46.20;;;29.05;;
60472;SDS011;46318;52.716;6.444;2023-11-21T05:32:31;52.13;;;24.88;;
60472;SDS011;46318;52.716;6.444;2023-11-21T05:34:58;51.70;;;27.25;;
60472;SDS011;46318;52.716;6.444;2023-11-21T05:37:25;54.03;;;31.80;;
60472;SDS011;46318;52.716;6.444;2023-11-21T05:39:55;47.78;;;24.90;;
60472;SDS011;46318;52.716;6.444;2023-11-21T05:42:29;39.65;;;23.38;;
60472;SDS011;46318;52.716;6.444;2023-11-21T05:44:56;41.88;;;27.42;;
60472;SDS011;46318;52.716;6.444;2023-11-21T05:47:25;39.42;;;22.45;;
60472;SDS011;46318;52.716;6.444;2023-11-21T05:49:51;46.03;;;23.77;;
60472;SDS011;46318;52.716;6.444;2023-11-21T05:52:18;38.70;;;22.42;;
60472;SDS011;46318;52.716;6.444;2023-11-21T05:54:50;42.13;;;26.70;;
60472;SDS011;46318;52.716;6.444;2023-11-21T05:57:18;38.15;;;20.48;;
60472;SDS011;46318;52.716;6.444;2023-11-21T05:59:44;44.92;;;27.02;;
60472;SDS011;46318;52.716;6.444;2023-11-21T06:02:14;37.08;;;21.15;;
60472;SDS011;46318;52.716;6.444;2023-11-21T06:05:17;40.95;;;22.25;;
60472;SDS011;46318;52.716;6.444;2023-11-21T06:07:46;37.53;;;21.75;;
60472;SDS011;46318;52.716;6.444;2023-11-21T06:10:41;39.80;;;22.92;;
60472;SDS011;46318;52.716;6.444;2023-11-21T06:15:43;35.00;;;19.02;;
60472;SDS011;46318;52.716;6.444;2023-11-21T06:18:50;36.20;;;19.10;;
60472;SDS011;46318;52.716;6.444;2023-11-21T06:21:49;38.20;;;21.95;;
60472;SDS011;46318;52.716;6.444;2023-11-21T06:28:06;37.95;;;21.35;;
60472;SDS011;46318;52.716;6.444;2023-11-21T06:30:44;37.38;;;22.50;;
60472;SDS011;46318;52.716;6.444;2023-11-21T06:33:13;44.80;;;23.33;;
60472;SDS011;46318;52.716;6.444;2023-11-21T06:35:48;46.25;;;24.20;;
60472;SDS011;46318;52.716;6.444;2023-11-21T06:38:55;40.28;;;21.35;;
60472;SDS011;46318;52.716;6.444;2023-11-21T06:41:35;42.53;;;22.52;;
60472;SDS011;46318;52.716;6.444;2023-11-21T06:44:19;45.63;;;23.65;;
60472;SDS011;46318;52.716;6.444;2023-11-21T06:49:37;38.65;;;21.83;;
60472;SDS011;46318;52.716;6.444;2023-11-21T06:52:15;52.88;;;26.20;;
60472;SDS011;46318;52.716;6.444;2023-11-21T06:54:52;48.33;;;25.13;;
60472;SDS011;46318;52.716;6.444;2023-11-21T07:00:45;60.53;;;27.63;;
60472;SDS011;46318;52.716;6.444;2023-11-21T07:03:35;66.63;;;31.50;;
60472;SDS011;46318;52.716;6.444;2023-11-21T07:06:14;64.82;;;32.05;;
60472;SDS011;46318;52.716;6.444;2023-11-21T07:11:52;62.30;;;29.45;;
60472;SDS011;46318;52.716;6.444;2023-11-21T07:14:42;75.65;;;37.38;;
60472;SDS011;46318;52.716;6.444;2023-11-21T07:17:19;63.92;;;29.20;;
60472;SDS011;46318;52.716;6.444;2023-11-21T07:19:54;63.13;;;30.70;;
60472;SDS011;46318;52.716;6.444;2023-11-21T07:22:32;65.68;;;31.25;;
60472;SDS011;46318;52.716;6.444;2023-11-21T07:25:27;56.13;;;29.33;;
60472;SDS011;46318;52.716;6.444;2023-11-21T07:35:22;56.00;;;27.50;;
60472;SDS011;46318;52.716;6.444;2023-11-21T07:41:09;49.40;;;26.50;;
60472;SDS011;46318;52.716;6.444;2023-11-21T07:44:03;51.17;;;27.92;;
60472;SDS011;46318;52.716;6.444;2023-11-21T07:46:40;45.78;;;29.13;;
60472;SDS011;46318;52.716;6.444;2023-11-21T07:59:10;53.63;;;27.05;;
60472;SDS011;46318;52.716;6.444;2023-11-21T08:02:06;57.75;;;27.67;;
60472;SDS011;46318;52.716;6.444;2023-11-21T08:05:18;55.05;;;28.40;;
60472;SDS011;46318;52.716;6.444;2023-11-21T08:08:12;58.17;;;28.42;;
60472;SDS011;46318;52.716;6.444;2023-11-21T08:10:50;63.92;;;33.45;;
60472;SDS011;46318;52.716;6.444;2023-11-21T08:13:47;58.17;;;26.80;;
60472;SDS011;46318;52.716;6.444;2023-11-21T08:16:25;61.10;;;27.17;;
60472;SDS011;46318;52.716;6.444;2023-11-21T08:19:10;51.80;;;25.48;;
60472;SDS011;46318;52.716;6.444;2023-11-21T08:21:39;47.58;;;24.00;;
60472;SDS011;46318;52.716;6.444;2023-11-21T08:24:13;41.35;;;22.60;;
60472;SDS011;46318;52.716;6.444;2023-11-21T08:26:44;41.08;;;25.65;;
60472;SDS011;46318;52.716;6.444;2023-11-21T08:29:19;39.40;;;21.38;;
60472;SDS011;46318;52.716;6.444;2023-11-21T08:31:51;39.85;;;22.23;;
60472;SDS011;46318;52.716;6.444;2023-11-21T08:34:37;40.80;;;20.40;;
60472;SDS011;46318;52.716;6.444;2023-11-21T08:40:08;38.45;;;19.73;;
60472;SDS011;46318;52.716;6.444;2023-11-21T08:42:43;34.90;;;20.92;;
60472;SDS011;46318;52.716;6.444;2023-11-21T08:45:19;41.88;;;24.75;;
60472;SDS011;46318;52.716;6.444;2023-11-21T08:47:59;38.05;;;20.13;;
60472;SDS011;46318;52.716;6.444;2023-11-21T08:50:30;42.63;;;21.45;;
60472;SDS011;46318;52.716;6.444;2023-11-21T08:53:00;43.17;;;21.77;;
60472;SDS011;46318;52.716;6.444;2023-11-21T08:58:28;42.58;;;19.15;;
60472;SDS011;46318;52.716;6.444;2023-11-21T09:01:02;38.80;;;20.90;;
60472;SDS011;46318;52.716;6.444;2023-11-21T09:03:28;39.47;;;23.80;;
60472;SDS011;46318;52.716;6.444;2023-11-21T09:05:57;44.20;;;20.38;;
60472;SDS011;46318;52.716;6.444;2023-11-21T09:08:26;42.13;;;23.98;;
60472;SDS011;46318;52.716;6.444;2023-11-21T09:10:54;34.83;;;17.70;;
60472;SDS011;46318;52.716;6.444;2023-11-21T09:13:25;38.67;;;19.52;;
60472;SDS011;46318;52.716;6.444;2023-11-21T09:15:52;37.05;;;21.95;;
60472;SDS011;46318;52.716;6.444;2023-11-21T09:18:23;38.97;;;19.15;;
60472;SDS011;46318;52.716;6.444;2023-11-21T09:20:58;42.78;;;22.50;;
60472;SDS011;46318;52.716;6.444;2023-11-21T09:23:25;30.52;;;20.23;;
60472;SDS011;46318;52.716;6.444;2023-11-21T09:25:56;34.05;;;17.27;;
60472;SDS011;46318;52.716;6.444;2023-11-21T09:28:28;33.67;;;20.85;;
60472;SDS011;46318;52.716;6.444;2023-11-21T09:30:56;29.75;;;16.33;;
60472;SDS011;46318;52.716;6.444;2023-11-21T09:33:22;31.02;;;18.63;;
60472;SDS011;46318;52.716;6.444;2023-11-21T09:35:50;32.35;;;15.27;;
60472;SDS011;46318;52.716;6.444;2023-11-21T09:38:19;31.60;;;17.35;;
60472;SDS011;46318;52.716;6.444;2023-11-21T09:40:50;34.15;;;17.20;;
60472;SDS011;46318;52.716;6.444;2023-11-21T09:43:25;36.13;;;19.30;;
60472;SDS011;46318;52.716;6.444;2023-11-21T09:45:54;38.63;;;17.38;;
60472;SDS011;46318;52.716;6.444;2023-11-21T09:48:24;41.08;;;17.92;;
60472;SDS011;46318;52.716;6.444;2023-11-21T09:50:52;42.42;;;20.80;;
60472;SDS011;46318;52.716;6.444;2023-11-21T09:53:21;46.25;;;19.20;;
60472;SDS011;46318;52.716;6.444;2023-11-21T09:55:53;55.72;;;23.98;;
60472;SDS011;46318;52.716;6.444;2023-11-21T09:58:20;53.58;;;20.75;;
60472;SDS011;46318;52.716;6.444;2023-11-21T10:00:52;55.92;;;22.17;;
60472;SDS011;46318;52.716;6.444;2023-11-21T10:03:21;53.83;;;23.52;;
60472;SDS011;46318;52.716;6.444;2023-11-21T10:05:50;64.75;;;26.33;;
60472;SDS011;46318;52.716;6.444;2023-11-21T10:08:16;63.85;;;30.98;;
60472;SDS011;46318;52.716;6.444;2023-11-21T10:10:44;68.13;;;27.27;;
60472;SDS011;46318;52.716;6.444;2023-11-21T10:13:29;74.43;;;29.15;;
60472;SDS011;46318;52.716;6.444;2023-11-21T10:16:25;77.38;;;27.90;;
60472;SDS011;46318;52.716;6.444;2023-11-21T10:18:54;70.88;;;33.72;;
60472;SDS011;46318;52.716;6.444;2023-11-21T10:21:21;68.93;;;29.23;;
60472;SDS011;46318;52.716;6.444;2023-11-21T10:23:51;63.17;;;29.38;;
60472;SDS011;46318;52.716;6.444;2023-11-21T10:26:29;59.70;;;28.10;;
60472;SDS011;46318;52.716;6.444;2023-11-21T10:29:00;65.03;;;32.85;;
60472;SDS011;46318;52.716;6.444;2023-11-21T10:31:31;52.65;;;24.98;;
60472;SDS011;46318;52.716;6.444;2023-11-21T10:34:14;57.08;;;27.77;;
60472;SDS011;46318;52.716;6.444;2023-11-21T10:36:46;55.22;;;26.13;;
60472;SDS011;46318;52.716;6.444;2023-11-21T10:39:21;56.13;;;26.90;;
60472;SDS011;46318;52.716;6.444;2023-11-21T10:41:49;49.85;;;26.75;;
60472;SDS011;46318;52.716;6.444;2023-11-21T10:44:23;50.17;;;25.70;;
60472;SDS011;46318;52.716;6.444;2023-11-21T10:46:50;54.58;;;31.05;;
60472;SDS011;46318;52.716;6.444;2023-11-21T10:49:25;46.47;;;25.02;;
60472;SDS011;46318;52.716;6.444;2023-11-21T10:51:55;43.78;;;24.77;;
60472;SDS011;46318;52.716;6.444;2023-11-21T10:54:22;46.78;;;29.35;;
60472;SDS011;46318;52.716;6.444;2023-11-21T10:57:00;47.67;;;23.92;;
60472;SDS011;46318;52.716;6.444;2023-11-21T10:59:29;43.97;;;24.52;;
60472;SDS011;46318;52.716;6.444;2023-11-21T11:01:58;41.03;;;28.08;;
60472;SDS011;46318;52.716;6.444;2023-11-21T11:04:28;41.70;;;23.20;;
60472;SDS011;46318;52.716;6.444;2023-11-21T11:06:58;45.42;;;25.95;;
60472;SDS011;46318;52.716;6.444;2023-11-21T11:09:28;43.70;;;23.55;;
60472;SDS011;46318;52.716;6.444;2023-11-21T11:12:01;44.25;;;25.00;;
60472;SDS011;46318;52.716;6.444;2023-11-21T11:14:35;45.55;;;26.27;;
60472;SDS011;46318;52.716;6.444;2023-11-21T11:17:02;44.67;;;26.23;;
60472;SDS011;46318;52.716;6.444;2023-11-21T11:19:31;51.70;;;31.27;;
60472;SDS011;46318;52.716;6.444;2023-11-21T11:29:55;42.88;;;29.65;;
60472;SDS011;46318;52.716;6.444;2023-11-21T11:38:44;39.33;;;20.48;;
60472;SDS011;46318;52.716;6.444;2023-11-21T11:41:24;32.58;;;20.98;;
60472;SDS011;46318;52.716;6.444;2023-11-21T11:43:57;31.25;;;21.25;;
60472;SDS011;46318;52.716;6.444;2023-11-21T11:46:40;33.85;;;21.55;;
60472;SDS011;46318;52.716;6.444;2023-11-21T11:49:28;31.10;;;21.33;;
60472;SDS011;46318;52.716;6.444;2023-11-21T11:57:56;26.30;;;19.27;;
60472;SDS011;46318;52.716;6.444;2023-11-21T12:02:58;25.27;;;19.23;;
60472;SDS011;46318;52.716;6.444;2023-11-21T12:05:29;22.98;;;19.88;;
60472;SDS011;46318;52.716;6.444;2023-11-21T12:08:09;23.00;;;15.73;;
60472;SDS011;46318;52.716;6.444;2023-11-21T12:10:40;18.13;;;15.30;;
60472;SDS011;46318;52.716;6.444;2023-11-21T12:13:13;18.52;;;16.55;;
60472;SDS011;46318;52.716;6.444;2023-11-21T12:16:27;19.00;;;13.73;;
60472;SDS011;46318;52.716;6.444;2023-11-21T12:19:29;19.33;;;14.32;;
60472;SDS011;46318;52.716;6.444;2023-11-21T12:25:00;13.18;;;11.73;;
60472;SDS011;46318;52.716;6.444;2023-11-21T12:29:01;13.50;;;11.80;;
60472;SDS011;46318;52.716;6.444;2023-11-21T12:32:16;15.93;;;12.15;;
60472;SDS011;46318;52.716;6.444;2023-11-21T12:35:00;13.68;;;11.90;;
60472;SDS011;46318;52.716;6.444;2023-11-21T12:37:31;16.00;;;12.50;;
60472;SDS011;46318;52.716;6.444;2023-11-21T12:40:01;14.77;;;13.25;;
60472;SDS011;46318;52.716;6.444;2023-11-21T12:42:32;13.48;;;11.55;;
60472;SDS011;46318;52.716;6.444;2023-11-21T12:48:05;14.65;;;12.38;;
60472;SDS011;46318;52.716;6.444;2023-11-21T12:50:55;14.13;;;12.63;;
60472;SDS011;46318;52.716;6.444;2023-11-21T12:53:42;17.27;;;12.75;;
60472;SDS011;46318;52.716;6.444;2023-11-21T12:56:16;14.18;;;12.40;;
60472;SDS011;46318;52.716;6.444;2023-11-21T13:02:07;14.10;;;11.57;;
60472;SDS011;46318;52.716;6.444;2023-11-21T13:05:03;15.63;;;12.07;;
60472;SDS011;46318;52.716;6.444;2023-11-21T13:08:27;13.68;;;12.02;;
60472;SDS011;46318;52.716;6.444;2023-11-21T13:11:43;14.68;;;13.10;;
60472;SDS011;46318;52.716;6.444;2023-11-21T13:14:20;14.80;;;12.55;;
60472;SDS011;46318;52.716;6.444;2023-11-21T13:17:20;15.05;;;12.00;;
60472;SDS011;46318;52.716;6.444;2023-11-21T13:26:27;14.18;;;11.25;;
60472;SDS011;46318;52.716;6.444;2023-11-21T13:28:58;15.40;;;12.55;;
60472;SDS011;46318;52.716;6.444;2023-11-21T13:31:43;13.27;;;11.88;;
60472;SDS011;46318;52.716;6.444;2023-11-21T13:34:32;16.42;;;11.75;;
60472;SDS011;46318;52.716;6.444;2023-11-21T13:37:17;13.85;;;10.68;;
60472;SDS011;46318;52.716;6.444;2023-11-21T13:44:03;12.73;;;10.32;;
60472;SDS011;46318;52.716;6.444;2023-11-21T13:46:51;11.43;;;9.70;;
60472;SDS011;46318;52.716;6.444;2023-11-21T13:49:25;10.77;;;8.95;;
60472;SDS011;46318;52.716;6.444;2023-11-21T13:52:06;10.70;;;9.13;;
60472;SDS011;46318;52.716;6.444;2023-11-21T13:58:07;12.80;;;9.73;;
60472;SDS011;46318;52.716;6.444;2023-11-21T14:00:45;12.20;;;9.80;;
60472;SDS011;46318;52.716;6.444;2023-11-21T14:03:38;11.38;;;9.60;;
60472;SDS011;46318;52.716;6.444;2023-11-21T14:06:17;11.57;;;9.95;;
60472;SDS011;46318;52.716;6.444;2023-11-21T14:09:01;12.07;;;9.70;;
60472;SDS011;46318;52.716;6.444;2023-11-21T14:11:34;11.40;;;10.18;;
60472;SDS011;46318;52.716;6.444;2023-11-21T14:14:32;13.10;;;10.57;;
60472;SDS011;46318;52.716;6.444;2023-11-21T14:17:07;11.05;;;9.88;;
60472;SDS011;46318;52.716;6.444;2023-11-21T14:19:45;12.23;;;10.30;;
60472;SDS011;46318;52.716;6.444;2023-11-21T14:22:14;12.48;;;10.40;;
60472;SDS011;46318;52.716;6.444;2023-11-21T14:24:53;12.40;;;10.45;;
60472;SDS011;46318;52.716;6.444;2023-11-21T14:27:20;13.52;;;11.40;;
60472;SDS011;46318;52.716;6.444;2023-11-21T14:29:58;13.02;;;10.90;;
60472;SDS011;46318;52.716;6.444;2023-11-21T14:32:26;14.43;;;11.38;;
60472;SDS011;46318;52.716;6.444;2023-11-21T14:35:14;14.25;;;10.93;;
60472;SDS011;46318;52.716;6.444;2023-11-21T14:37:59;13.18;;;11.05;;
60472;SDS011;46318;52.716;6.444;2023-11-21T14:40:33;13.18;;;11.70;;
60472;SDS011;46318;52.716;6.444;2023-11-21T14:43:02;12.55;;;10.65;;
60472;SDS011;46318;52.716;6.444;2023-11-21T14:45:37;14.10;;;10.68;;
60472;SDS011;46318;52.716;6.444;2023-11-21T14:48:38;13.85;;;11.02;;
60472;SDS011;46318;52.716;6.444;2023-11-21T14:51:13;14.38;;;10.98;;
60472;SDS011;46318;52.716;6.444;2023-11-21T14:53:50;12.00;;;10.43;;
60472;SDS011;46318;52.716;6.444;2023-11-21T14:56:39;13.50;;;11.02;;
60472;SDS011;46318;52.716;6.444;2023-11-21T14:59:15;14.10;;;11.10;;
60472;SDS011;46318;52.716;6.444;2023-11-21T15:02:00;11.82;;;10.32;;
60472;SDS011;46318;52.716;6.444;2023-11-21T15:08:17;12.10;;;9.23;;
60472;SDS011;46318;52.716;6.444;2023-11-21T15:11:09;13.05;;;9.73;;
60472;SDS011;46318;52.716;6.444;2023-11-21T15:20:21;11.35;;;10.10;;
60472;SDS011;46318;52.716;6.444;2023-11-21T15:23:42;12.13;;;9.77;;
60472;SDS011;46318;52.716;6.444;2023-11-21T15:26:08;13.43;;;10.88;;
60472;SDS011;46318;52.716;6.444;2023-11-21T15:29:00;11.10;;;9.63;;
60472;SDS011;46318;52.716;6.444;2023-11-21T15:31:43;13.75;;;10.98;;
60472;SDS011;46318;52.716;6.444;2023-11-21T15:34:29;13.50;;;9.68;;
60472;SDS011;46318;52.716;6.444;2023-11-21T15:36:59;14.65;;;10.73;;
60472;SDS011;46318;52.716;6.444;2023-11-21T15:39:33;11.50;;;9.38;;
60472;SDS011;46318;52.716;6.444;2023-11-21T15:42:21;12.75;;;9.70;;
60472;SDS011;46318;52.716;6.444;2023-11-21T15:45:10;12.10;;;9.38;;
60472;SDS011;46318;52.716;6.444;2023-11-21T15:47:36;12.55;;;9.77;;
60472;SDS011;46318;52.716;6.444;2023-11-21T15:50:06;11.20;;;9.45;;
60472;SDS011;46318;52.716;6.444;2023-11-21T15:52:38;10.50;;;9.40;;
60472;SDS011;46318;52.716;6.444;2023-11-21T15:55:24;12.73;;;10.15;;
60472;SDS011;46318;52.716;6.444;2023-11-21T15:57:58;11.25;;;9.60;;
60472;SDS011;46318;52.716;6.444;2023-11-21T16:06:32;13.68;;;10.27;;
60472;SDS011;46318;52.716;6.444;2023-11-21T16:09:07;11.93;;;10.00;;
60472;SDS011;46318;52.716;6.444;2023-11-21T16:12:10;14.25;;;10.73;;
60472;SDS011;46318;52.716;6.444;2023-11-21T16:14:46;12.77;;;9.90;;
60472;SDS011;46318;52.716;6.444;2023-11-21T16:17:33;12.35;;;9.80;;
60472;SDS011;46318;52.716;6.444;2023-11-21T16:20:08;11.38;;;10.15;;
60472;SDS011;46318;52.716;6.444;2023-11-21T16:22:40;11.25;;;9.63;;
60472;SDS011;46318;52.716;6.444;2023-11-21T16:25:29;10.02;;;9.02;;
60472;SDS011;46318;52.716;6.444;2023-11-21T16:28:23;10.20;;;8.65;;
60472;SDS011;46318;52.716;6.444;2023-11-21T16:33:43;10.00;;;8.52;;
60472;SDS011;46318;52.716;6.444;2023-11-21T16:36:12;11.70;;;9.30;;
60472;SDS011;46318;52.716;6.444;2023-11-21T16:45:04;11.63;;;8.93;;
60472;SDS011;46318;52.716;6.444;2023-11-21T16:47:31;10.15;;;9.13;;
60472;SDS011;46318;52.716;6.444;2023-11-21T16:49:58;11.32;;;9.55;;
60472;SDS011;46318;52.716;6.444;2023-11-21T16:52:27;13.77;;;10.00;;
60472;SDS011;46318;52.716;6.444;2023-11-21T16:55:09;12.32;;;10.38;;
60472;SDS011;46318;52.716;6.444;2023-11-21T16:57:43;16.25;;;9.68;;